sensor_id;sensor_type;location;lat;lon;timestamp;temperature;humidity
55091;DHT22;40985;53.180;5.800;2022-11-15T00:00:26;7.00;99.90
55091;DHT22;40985;53.180;5.800;2022-11-15T00:02:52;7.00;99.90
55091;DHT22;40985;53.180;5.800;2022-11-15T00:05:18;7.00;99.90
55091;DHT22;40985;53.180;5.800;2022-11-15T00:07:44;7.00;99.90
55091;DHT22;40985;53.180;5.800;2022-11-15T00:10:10;7.00;99.90
55091;DHT22;40985;53.180;5.800;2022-11-15T00:12:35;7.00;99.90
55091;DHT22;40985;53.180;5.800;2022-11-15T00:15:01;7.00;99.90
55091;DHT22;40985;53.180;5.800;2022-11-15T00:17:27;7.00;99.90
55091;DHT22;40985;53.180;5.800;2022-11-15T00:19:52;7.00;99.90
55091;DHT22;40985;53.180;5.800;2022-11-15T00:22:18;7.00;99.90
55091;DHT22;40985;53.180;5.800;2022-11-15T00:24:43;7.10;99.90
55091;DHT22;40985;53.180;5.800;2022-11-15T00:27:09;7.00;99.90
55091;DHT22;40985;53.180;5.800;2022-11-15T00:29:35;7.10;99.90
55091;DHT22;40985;53.180;5.800;2022-11-15T00:32:03;7.10;99.90
55091;DHT22;40985;53.180;5.800;2022-11-15T00:34:28;7.10;99.90
55091;DHT22;40985;53.180;5.800;2022-11-15T00:36:54;7.10;99.90
55091;DHT22;40985;53.180;5.800;2022-11-15T00:39:20;7.10;99.90
55091;DHT22;40985;53.180;5.800;2022-11-15T00:41:45;7.10;99.90
55091;DHT22;40985;53.180;5.800;2022-11-15T00:44:11;7.10;99.90
55091;DHT22;40985;53.180;5.800;2022-11-15T00:46:37;7.00;99.90
55091;DHT22;40985;53.180;5.800;2022-11-15T00:49:02;7.00;99.90
55091;DHT22;40985;53.180;5.800;2022-11-15T00:51:28;7.00;99.90
55091;DHT22;40985;53.180;5.800;2022-11-15T00:53:54;7.00;99.90
55091;DHT22;40985;53.180;5.800;2022-11-15T00:56:19;7.00;99.90
55091;DHT22;40985;53.180;5.800;2022-11-15T00:58:45;7.00;99.90
55091;DHT22;40985;53.180;5.800;2022-11-15T01:01:12;6.90;99.90
55091;DHT22;40985;53.180;5.800;2022-11-15T01:03:39;6.90;99.90
55091;DHT22;40985;53.180;5.800;2022-11-15T01:06:06;6.90;99.90
55091;DHT22;40985;53.180;5.800;2022-11-15T01:08:32;6.90;99.90
55091;DHT22;40985;53.180;5.800;2022-11-15T01:11:06;6.90;99.90
55091;DHT22;40985;53.180;5.800;2022-11-15T01:13:33;6.80;99.90
55091;DHT22;40985;53.180;5.800;2022-11-15T01:16:05;6.90;99.90
55091;DHT22;40985;53.180;5.800;2022-11-15T01:18:31;6.80;99.90
55091;DHT22;40985;53.180;5.800;2022-11-15T01:20:57;6.90;99.90
55091;DHT22;40985;53.180;5.800;2022-11-15T01:23:22;6.80;99.90
55091;DHT22;40985;53.180;5.800;2022-11-15T01:25:48;6.80;99.90
55091;DHT22;40985;53.180;5.800;2022-11-15T01:28:14;6.80;99.90
55091;DHT22;40985;53.180;5.800;2022-11-15T01:30:39;6.80;99.90
55091;DHT22;40985;53.180;5.800;2022-11-15T01:33:05;6.90;99.90
55091;DHT22;40985;53.180;5.800;2022-11-15T01:35:31;6.80;99.90
55091;DHT22;40985;53.180;5.800;2022-11-15T01:37:56;6.70;99.90
55091;DHT22;40985;53.180;5.800;2022-11-15T01:40:22;6.70;99.90
55091;DHT22;40985;53.180;5.800;2022-11-15T01:42:48;6.60;99.90
55091;DHT22;40985;53.180;5.800;2022-11-15T01:45:14;6.60;99.90
55091;DHT22;40985;53.180;5.800;2022-11-15T01:47:48;6.60;99.90
55091;DHT22;40985;53.180;5.800;2022-11-15T01:50:17;6.50;99.90
55091;DHT22;40985;53.180;5.800;2022-11-15T01:52:45;6.50;99.90
55091;DHT22;40985;53.180;5.800;2022-11-15T01:55:23;6.40;99.90
55091;DHT22;40985;53.180;5.800;2022-11-15T01:57:55;6.40;99.90
55091;DHT22;40985;53.180;5.800;2022-11-15T02:00:22;6.40;99.90
55091;DHT22;40985;53.180;5.800;2022-11-15T02:02:47;6.40;99.90
55091;DHT22;40985;53.180;5.800;2022-11-15T02:05:13;6.30;99.90
55091;DHT22;40985;53.180;5.800;2022-11-15T02:07:39;6.20;99.90
55091;DHT22;40985;53.180;5.800;2022-11-15T02:10:17;6.20;99.90
55091;DHT22;40985;53.180;5.800;2022-11-15T02:12:43;6.20;99.90
55091;DHT22;40985;53.180;5.800;2022-11-15T02:15:09;6.20;99.90
55091;DHT22;40985;53.180;5.800;2022-11-15T02:28:54;6.10;99.90
55091;DHT22;40985;53.180;5.800;2022-11-15T02:31:34;6.10;99.90
55091;DHT22;40985;53.180;5.800;2022-11-15T02:36:43;6.10;99.90
55091;DHT22;40985;53.180;5.800;2022-11-15T02:39:27;6.10;99.90
55091;DHT22;40985;53.180;5.800;2022-11-15T02:42:03;6.10;99.90
55091;DHT22;40985;53.180;5.800;2022-11-15T02:44:43;6.10;99.90
55091;DHT22;40985;53.180;5.800;2022-11-15T02:47:13;6.10;99.90
55091;DHT22;40985;53.180;5.800;2022-11-15T02:49:46;6.10;99.90
55091;DHT22;40985;53.180;5.800;2022-11-15T02:52:17;6.10;99.90
55091;DHT22;40985;53.180;5.800;2022-11-15T02:54:52;6.10;99.90
55091;DHT22;40985;53.180;5.800;2022-11-15T02:57:19;6.20;99.90
55091;DHT22;40985;53.180;5.800;2022-11-15T03:00:13;6.20;99.90
55091;DHT22;40985;53.180;5.800;2022-11-15T03:10:31;6.20;99.90
55091;DHT22;40985;53.180;5.800;2022-11-15T03:12:59;6.20;99.90
55091;DHT22;40985;53.180;5.800;2022-11-15T03:15:31;6.20;99.90
55091;DHT22;40985;53.180;5.800;2022-11-15T03:18:04;6.20;99.90
55091;DHT22;40985;53.180;5.800;2022-11-15T03:20:32;6.20;99.90
55091;DHT22;40985;53.180;5.800;2022-11-15T03:23:10;6.20;99.90
55091;DHT22;40985;53.180;5.800;2022-11-15T03:25:41;6.20;99.90
55091;DHT22;40985;53.180;5.800;2022-11-15T03:28:11;6.30;99.90
55091;DHT22;40985;53.180;5.800;2022-11-15T03:30:38;6.20;99.90
55091;DHT22;40985;53.180;5.800;2022-11-15T03:33:05;6.30;99.90
55091;DHT22;40985;53.180;5.800;2022-11-15T03:35:38;6.20;99.90
55091;DHT22;40985;53.180;5.800;2022-11-15T03:38:22;6.30;99.90
55091;DHT22;40985;53.180;5.800;2022-11-15T03:41:12;6.30;99.90
55091;DHT22;40985;53.180;5.800;2022-11-15T03:43:56;6.30;99.90
55091;DHT22;40985;53.180;5.800;2022-11-15T03:46:27;6.30;99.90
55091;DHT22;40985;53.180;5.800;2022-11-15T03:49:08;6.30;99.90
55091;DHT22;40985;53.180;5.800;2022-11-15T03:51:35;6.30;99.90
55091;DHT22;40985;53.180;5.800;2022-11-15T03:54:05;6.30;99.90
55091;DHT22;40985;53.180;5.800;2022-11-15T03:56:31;6.40;99.90
55091;DHT22;40985;53.180;5.800;2022-11-15T03:58:57;6.40;99.90
55091;DHT22;40985;53.180;5.800;2022-11-15T04:01:23;6.40;99.90
55091;DHT22;40985;53.180;5.800;2022-11-15T04:03:49;6.40;99.90
55091;DHT22;40985;53.180;5.800;2022-11-15T04:06:14;6.40;99.90
55091;DHT22;40985;53.180;5.800;2022-11-15T04:08:40;6.50;99.90
55091;DHT22;40985;53.180;5.800;2022-11-15T04:11:06;6.50;99.90
55091;DHT22;40985;53.180;5.800;2022-11-15T04:13:31;6.50;99.90
55091;DHT22;40985;53.180;5.800;2022-11-15T04:15:57;6.50;99.90
55091;DHT22;40985;53.180;5.800;2022-11-15T04:18:23;6.50;99.90
55091;DHT22;40985;53.180;5.800;2022-11-15T04:20:49;6.50;99.90
55091;DHT22;40985;53.180;5.800;2022-11-15T04:23:34;6.60;99.90
55091;DHT22;40985;53.180;5.800;2022-11-15T04:26:21;6.60;99.90
55091;DHT22;40985;53.180;5.800;2022-11-15T04:28:48;6.60;99.90
55091;DHT22;40985;53.180;5.800;2022-11-15T04:31:32;6.60;99.90
55091;DHT22;40985;53.180;5.800;2022-11-15T04:33:58;6.60;99.90
55091;DHT22;40985;53.180;5.800;2022-11-15T04:36:24;6.60;99.90
55091;DHT22;40985;53.180;5.800;2022-11-15T04:39:08;6.70;99.90
55091;DHT22;40985;53.180;5.800;2022-11-15T04:41:33;6.70;99.90
55091;DHT22;40985;53.180;5.800;2022-11-15T04:43:59;6.70;99.90
55091;DHT22;40985;53.180;5.800;2022-11-15T04:46:25;6.70;99.90
55091;DHT22;40985;53.180;5.800;2022-11-15T04:48:52;6.70;99.90
55091;DHT22;40985;53.180;5.800;2022-11-15T04:51:18;6.80;99.90
55091;DHT22;40985;53.180;5.800;2022-11-15T04:53:44;6.80;99.90
55091;DHT22;40985;53.180;5.800;2022-11-15T04:56:09;6.80;99.90
55091;DHT22;40985;53.180;5.800;2022-11-15T04:58:35;6.90;99.90
55091;DHT22;40985;53.180;5.800;2022-11-15T05:01:11;6.90;99.90
55091;DHT22;40985;53.180;5.800;2022-11-15T05:03:37;6.90;99.90
55091;DHT22;40985;53.180;5.800;2022-11-15T05:06:22;7.00;99.90
55091;DHT22;40985;53.180;5.800;2022-11-15T05:08:47;7.00;99.90
55091;DHT22;40985;53.180;5.800;2022-11-15T05:11:13;7.00;99.90
55091;DHT22;40985;53.180;5.800;2022-11-15T05:13:39;7.10;99.90
55091;DHT22;40985;53.180;5.800;2022-11-15T05:16:05;7.10;99.90
55091;DHT22;40985;53.180;5.800;2022-11-15T05:18:30;7.10;99.90
55091;DHT22;40985;53.180;5.800;2022-11-15T05:21:02;7.10;99.90
55091;DHT22;40985;53.180;5.800;2022-11-15T05:23:28;7.20;99.90
55091;DHT22;40985;53.180;5.800;2022-11-15T05:25:53;7.20;99.90
55091;DHT22;40985;53.180;5.800;2022-11-15T05:28:23;7.20;99.90
55091;DHT22;40985;53.180;5.800;2022-11-15T05:30:49;7.30;99.90
55091;DHT22;40985;53.180;5.800;2022-11-15T05:33:15;7.30;99.90
55091;DHT22;40985;53.180;5.800;2022-11-15T05:35:42;7.40;99.90
55091;DHT22;40985;53.180;5.800;2022-11-15T05:38:09;7.40;99.90
55091;DHT22;40985;53.180;5.800;2022-11-15T05:40:35;7.40;99.90
55091;DHT22;40985;53.180;5.800;2022-11-15T05:43:02;7.50;99.90
55091;DHT22;40985;53.180;5.800;2022-11-15T05:45:31;7.50;99.90
55091;DHT22;40985;53.180;5.800;2022-11-15T05:47:58;7.50;99.90
55091;DHT22;40985;53.180;5.800;2022-11-15T05:50:24;7.60;99.90
55091;DHT22;40985;53.180;5.800;2022-11-15T05:52:51;7.70;99.90
55091;DHT22;40985;53.180;5.800;2022-11-15T05:55:17;7.70;99.90
55091;DHT22;40985;53.180;5.800;2022-11-15T05:57:43;7.70;99.90
55091;DHT22;40985;53.180;5.800;2022-11-15T06:00:09;7.80;99.90
55091;DHT22;40985;53.180;5.800;2022-11-15T06:02:35;7.80;99.90
55091;DHT22;40985;53.180;5.800;2022-11-15T06:05:00;7.80;99.90
55091;DHT22;40985;53.180;5.800;2022-11-15T06:07:26;7.90;99.90
55091;DHT22;40985;53.180;5.800;2022-11-15T06:09:52;7.80;99.90
55091;DHT22;40985;53.180;5.800;2022-11-15T06:12:17;7.90;99.90
55091;DHT22;40985;53.180;5.800;2022-11-15T06:14:43;7.90;99.90
55091;DHT22;40985;53.180;5.800;2022-11-15T06:17:09;8.00;99.90
55091;DHT22;40985;53.180;5.800;2022-11-15T06:19:34;8.00;99.90
55091;DHT22;40985;53.180;5.800;2022-11-15T06:22:00;8.10;99.90
55091;DHT22;40985;53.180;5.800;2022-11-15T06:24:25;8.10;99.90
55091;DHT22;40985;53.180;5.800;2022-11-15T06:26:51;8.10;99.90
55091;DHT22;40985;53.180;5.800;2022-11-15T06:29:17;8.10;99.90
55091;DHT22;40985;53.180;5.800;2022-11-15T06:31:43;8.20;99.90
55091;DHT22;40985;53.180;5.800;2022-11-15T06:34:08;8.20;99.90
55091;DHT22;40985;53.180;5.800;2022-11-15T06:36:35;8.20;99.90
55091;DHT22;40985;53.180;5.800;2022-11-15T06:39:04;8.20;99.90
55091;DHT22;40985;53.180;5.800;2022-11-15T06:41:30;8.20;99.90
55091;DHT22;40985;53.180;5.800;2022-11-15T06:43:59;8.30;99.90
55091;DHT22;40985;53.180;5.800;2022-11-15T06:46:24;8.40;99.90
55091;DHT22;40985;53.180;5.800;2022-11-15T06:48:54;8.30;99.90
55091;DHT22;40985;53.180;5.800;2022-11-15T06:51:20;8.40;99.90
55091;DHT22;40985;53.180;5.800;2022-11-15T06:53:46;8.50;99.90
55091;DHT22;40985;53.180;5.800;2022-11-15T06:56:11;8.40;99.90
55091;DHT22;40985;53.180;5.800;2022-11-15T06:58:37;8.50;99.90
55091;DHT22;40985;53.180;5.800;2022-11-15T07:01:08;8.50;99.90
55091;DHT22;40985;53.180;5.800;2022-11-15T07:03:39;8.60;99.90
55091;DHT22;40985;53.180;5.800;2022-11-15T07:06:05;8.50;99.90
55091;DHT22;40985;53.180;5.800;2022-11-15T07:08:31;8.50;99.90
55091;DHT22;40985;53.180;5.800;2022-11-15T07:11:02;8.60;99.90
55091;DHT22;40985;53.180;5.800;2022-11-15T07:13:30;8.60;99.90
55091;DHT22;40985;53.180;5.800;2022-11-15T07:16:01;8.60;99.90
55091;DHT22;40985;53.180;5.800;2022-11-15T07:18:27;8.60;99.90
55091;DHT22;40985;53.180;5.800;2022-11-15T07:20:53;8.70;99.90
55091;DHT22;40985;53.180;5.800;2022-11-15T07:23:18;8.70;99.90
55091;DHT22;40985;53.180;5.800;2022-11-15T07:25:44;8.70;99.90
55091;DHT22;40985;53.180;5.800;2022-11-15T07:28:10;8.80;99.90
55091;DHT22;40985;53.180;5.800;2022-11-15T07:30:35;8.80;99.90
55091;DHT22;40985;53.180;5.800;2022-11-15T07:33:01;8.80;99.90
55091;DHT22;40985;53.180;5.800;2022-11-15T07:35:28;8.90;99.90
55091;DHT22;40985;53.180;5.800;2022-11-15T07:37:55;8.90;99.90
55091;DHT22;40985;53.180;5.800;2022-11-15T07:40:21;9.00;99.90
55091;DHT22;40985;53.180;5.800;2022-11-15T07:42:47;9.00;99.90
55091;DHT22;40985;53.180;5.800;2022-11-15T07:45:20;9.00;99.90
55091;DHT22;40985;53.180;5.800;2022-11-15T07:47:47;9.00;99.90
55091;DHT22;40985;53.180;5.800;2022-11-15T07:50:12;9.10;99.90
55091;DHT22;40985;53.180;5.800;2022-11-15T07:52:38;9.10;99.90
55091;DHT22;40985;53.180;5.800;2022-11-15T07:55:04;9.10;99.90
55091;DHT22;40985;53.180;5.800;2022-11-15T07:57:30;9.10;99.90
55091;DHT22;40985;53.180;5.800;2022-11-15T07:59:56;9.20;99.90
55091;DHT22;40985;53.180;5.800;2022-11-15T08:02:21;9.20;99.90
55091;DHT22;40985;53.180;5.800;2022-11-15T08:04:47;9.30;99.90
55091;DHT22;40985;53.180;5.800;2022-11-15T08:07:13;9.30;99.90
55091;DHT22;40985;53.180;5.800;2022-11-15T08:09:38;9.30;99.90
55091;DHT22;40985;53.180;5.800;2022-11-15T08:12:04;9.40;99.90
55091;DHT22;40985;53.180;5.800;2022-11-15T08:14:30;9.40;99.90
55091;DHT22;40985;53.180;5.800;2022-11-15T08:16:56;9.40;99.90
55091;DHT22;40985;53.180;5.800;2022-11-15T08:19:22;9.40;99.90
55091;DHT22;40985;53.180;5.800;2022-11-15T08:21:48;9.40;99.90
55091;DHT22;40985;53.180;5.800;2022-11-15T08:24:14;9.40;99.90
55091;DHT22;40985;53.180;5.800;2022-11-15T08:26:40;9.50;99.90
55091;DHT22;40985;53.180;5.800;2022-11-15T08:29:06;9.50;99.90
55091;DHT22;40985;53.180;5.800;2022-11-15T08:31:35;9.60;99.90
55091;DHT22;40985;53.180;5.800;2022-11-15T08:34:03;9.60;99.90
55091;DHT22;40985;53.180;5.800;2022-11-15T08:36:29;9.60;99.90
55091;DHT22;40985;53.180;5.800;2022-11-15T08:38:55;9.80;99.90
55091;DHT22;40985;53.180;5.800;2022-11-15T08:41:40;9.90;99.90
55091;DHT22;40985;53.180;5.800;2022-11-15T08:44:06;10.00;99.90
55091;DHT22;40985;53.180;5.800;2022-11-15T08:46:32;10.10;99.90
55091;DHT22;40985;53.180;5.800;2022-11-15T08:48:58;10.20;99.90
55091;DHT22;40985;53.180;5.800;2022-11-15T08:51:23;10.20;99.90
55091;DHT22;40985;53.180;5.800;2022-11-15T08:53:49;10.20;99.90
55091;DHT22;40985;53.180;5.800;2022-11-15T08:56:15;10.20;99.90
55091;DHT22;40985;53.180;5.800;2022-11-15T08:58:41;10.20;99.90
55091;DHT22;40985;53.180;5.800;2022-11-15T09:01:15;10.20;99.90
55091;DHT22;40985;53.180;5.800;2022-11-15T09:03:41;10.20;99.90
55091;DHT22;40985;53.180;5.800;2022-11-15T09:06:07;10.20;99.90
55091;DHT22;40985;53.180;5.800;2022-11-15T09:08:33;10.20;99.90
55091;DHT22;40985;53.180;5.800;2022-11-15T09:11:03;10.10;99.90
55091;DHT22;40985;53.180;5.800;2022-11-15T09:13:29;10.10;99.90
55091;DHT22;40985;53.180;5.800;2022-11-15T09:15:58;10.10;99.90
55091;DHT22;40985;53.180;5.800;2022-11-15T09:18:24;10.20;99.90
55091;DHT22;40985;53.180;5.800;2022-11-15T09:20:50;10.30;99.90
55091;DHT22;40985;53.180;5.800;2022-11-15T09:23:16;10.20;99.90
55091;DHT22;40985;53.180;5.800;2022-11-15T09:25:41;10.30;99.90
55091;DHT22;40985;53.180;5.800;2022-11-15T09:28:07;10.30;99.90
55091;DHT22;40985;53.180;5.800;2022-11-15T09:30:33;10.30;99.90
55091;DHT22;40985;53.180;5.800;2022-11-15T09:33:09;10.30;99.90
55091;DHT22;40985;53.180;5.800;2022-11-15T09:35:35;10.40;99.90
55091;DHT22;40985;53.180;5.800;2022-11-15T09:38:01;10.40;99.90
55091;DHT22;40985;53.180;5.800;2022-11-15T09:40:27;10.40;99.90
55091;DHT22;40985;53.180;5.800;2022-11-15T09:50:50;10.20;99.90
55091;DHT22;40985;53.180;5.800;2022-11-15T09:56:27;10.20;99.90
55091;DHT22;40985;53.180;5.800;2022-11-15T10:04:41;10.20;99.90
55091;DHT22;40985;53.180;5.800;2022-11-15T10:07:14;10.20;99.90
55091;DHT22;40985;53.180;5.800;2022-11-15T10:09:47;10.30;99.90
55091;DHT22;40985;53.180;5.800;2022-11-15T10:12:17;10.30;99.90
55091;DHT22;40985;53.180;5.800;2022-11-15T10:14:43;10.40;99.90
55091;DHT22;40985;53.180;5.800;2022-11-15T10:20:25;10.60;99.90
55091;DHT22;40985;53.180;5.800;2022-11-15T10:23:05;10.70;99.90
55091;DHT22;40985;53.180;5.800;2022-11-15T10:25:33;10.70;99.90
55091;DHT22;40985;53.180;5.800;2022-11-15T10:28:25;10.80;99.90
55091;DHT22;40985;53.180;5.800;2022-11-15T10:30:57;10.80;99.90
55091;DHT22;40985;53.180;5.800;2022-11-15T10:46:32;11.10;99.90
55091;DHT22;40985;53.180;5.800;2022-11-15T10:52:16;11.10;99.90
55091;DHT22;40985;53.180;5.800;2022-11-15T10:57:24;11.10;99.90
55091;DHT22;40985;53.180;5.800;2022-11-15T10:59:59;11.10;99.90
55091;DHT22;40985;53.180;5.800;2022-11-15T11:02:30;11.10;99.90
55091;DHT22;40985;53.180;5.800;2022-11-15T11:04:56;11.20;99.90
55091;DHT22;40985;53.180;5.800;2022-11-15T11:07:34;11.20;99.90
55091;DHT22;40985;53.180;5.800;2022-11-15T11:10:21;11.20;99.90
55091;DHT22;40985;53.180;5.800;2022-11-15T11:12:46;11.20;99.90
55091;DHT22;40985;53.180;5.800;2022-11-15T11:15:14;11.30;99.90
55091;DHT22;40985;53.180;5.800;2022-11-15T11:18:10;11.40;99.90
55091;DHT22;40985;53.180;5.800;2022-11-15T11:20:45;11.40;99.90
55091;DHT22;40985;53.180;5.800;2022-11-15T11:28:53;11.40;99.90
55091;DHT22;40985;53.180;5.800;2022-11-15T11:45:15;11.50;99.90
55091;DHT22;40985;53.180;5.800;2022-11-15T11:47:52;11.50;99.90
55091;DHT22;40985;53.180;5.800;2022-11-15T11:50:31;11.40;99.90
55091;DHT22;40985;53.180;5.800;2022-11-15T11:53:28;11.50;99.90
55091;DHT22;40985;53.180;5.800;2022-11-15T11:55:58;11.50;99.90
55091;DHT22;40985;53.180;5.800;2022-11-15T11:58:43;11.50;99.90
55091;DHT22;40985;53.180;5.800;2022-11-15T12:03:58;11.60;99.90
55091;DHT22;40985;53.180;5.800;2022-11-15T12:09:30;11.80;99.90
55091;DHT22;40985;53.180;5.800;2022-11-15T12:15:04;11.80;99.90
55091;DHT22;40985;53.180;5.800;2022-11-15T12:17:35;11.80;99.90
55091;DHT22;40985;53.180;5.800;2022-11-15T12:20:15;11.80;99.90
55091;DHT22;40985;53.180;5.800;2022-11-15T12:22:43;11.90;99.90
55091;DHT22;40985;53.180;5.800;2022-11-15T12:27:57;12.00;99.90
55091;DHT22;40985;53.180;5.800;2022-11-15T12:30:38;12.10;99.90
55091;DHT22;40985;53.180;5.800;2022-11-15T12:33:36;12.10;99.90
55091;DHT22;40985;53.180;5.800;2022-11-15T12:36:10;12.20;99.90
55091;DHT22;40985;53.180;5.800;2022-11-15T12:41:31;12.30;99.90
55091;DHT22;40985;53.180;5.800;2022-11-15T12:43:57;12.20;99.90
55091;DHT22;40985;53.180;5.800;2022-11-15T12:49:09;12.20;99.90
55091;DHT22;40985;53.180;5.800;2022-11-15T13:00:00;12.20;99.90
55091;DHT22;40985;53.180;5.800;2022-11-15T13:13:00;11.90;99.90
55091;DHT22;40985;53.180;5.800;2022-11-15T13:15:56;11.90;99.90
55091;DHT22;40985;53.180;5.800;2022-11-15T13:20:52;11.80;99.90
55091;DHT22;40985;53.180;5.800;2022-11-15T13:23:18;11.70;99.90
55091;DHT22;40985;53.180;5.800;2022-11-15T13:28:32;11.70;99.90
55091;DHT22;40985;53.180;5.800;2022-11-15T13:31:13;11.60;99.90
55091;DHT22;40985;53.180;5.800;2022-11-15T13:33:44;11.60;99.90
55091;DHT22;40985;53.180;5.800;2022-11-15T13:36:18;11.50;99.90
55091;DHT22;40985;53.180;5.800;2022-11-15T13:38:44;11.50;99.90
55091;DHT22;40985;53.180;5.800;2022-11-15T13:41:24;11.50;99.90
55091;DHT22;40985;53.180;5.800;2022-11-15T13:43:52;11.50;99.90
55091;DHT22;40985;53.180;5.800;2022-11-15T13:46:23;11.50;99.90
55091;DHT22;40985;53.180;5.800;2022-11-15T13:48:56;11.50;99.90
55091;DHT22;40985;53.180;5.800;2022-11-15T13:54:25;11.40;99.90
55091;DHT22;40985;53.180;5.800;2022-11-15T13:57:12;11.30;99.90
55091;DHT22;40985;53.180;5.800;2022-11-15T13:59:47;11.30;99.90
55091;DHT22;40985;53.180;5.800;2022-11-15T14:02:16;11.20;99.90
55091;DHT22;40985;53.180;5.800;2022-11-15T14:05:12;11.20;99.90
55091;DHT22;40985;53.180;5.800;2022-11-15T14:07:39;11.10;99.90
55091;DHT22;40985;53.180;5.800;2022-11-15T14:10:30;11.00;99.90
55091;DHT22;40985;53.180;5.800;2022-11-15T14:12:56;11.00;99.90
55091;DHT22;40985;53.180;5.800;2022-11-15T14:15:34;11.00;99.90
55091;DHT22;40985;53.180;5.800;2022-11-15T14:18:01;10.90;99.90
55091;DHT22;40985;53.180;5.800;2022-11-15T14:20:33;10.80;99.90
55091;DHT22;40985;53.180;5.800;2022-11-15T14:25:57;10.70;99.90
55091;DHT22;40985;53.180;5.800;2022-11-15T14:30:49;10.60;99.90
55091;DHT22;40985;53.180;5.800;2022-11-15T14:33:21;10.60;99.90
55091;DHT22;40985;53.180;5.800;2022-11-15T14:35:47;10.50;99.90
55091;DHT22;40985;53.180;5.800;2022-11-15T14:38:13;10.50;99.90
55091;DHT22;40985;53.180;5.800;2022-11-15T14:40:39;10.40;99.90
55091;DHT22;40985;53.180;5.800;2022-11-15T14:43:09;10.30;99.90
55091;DHT22;40985;53.180;5.800;2022-11-15T14:45:35;10.20;99.90
55091;DHT22;40985;53.180;5.800;2022-11-15T14:48:01;10.20;99.90
55091;DHT22;40985;53.180;5.800;2022-11-15T14:50:26;10.10;99.90
55091;DHT22;40985;53.180;5.800;2022-11-15T14:52:53;10.10;99.90
55091;DHT22;40985;53.180;5.800;2022-11-15T14:55:25;10.00;99.90
55091;DHT22;40985;53.180;5.800;2022-11-15T14:57:51;10.00;99.90
55091;DHT22;40985;53.180;5.800;2022-11-15T15:00:18;9.90;99.90
55091;DHT22;40985;53.180;5.800;2022-11-15T15:02:45;9.90;99.90
55091;DHT22;40985;53.180;5.800;2022-11-15T15:07:40;9.90;99.90
55091;DHT22;40985;53.180;5.800;2022-11-15T15:10:05;9.90;99.90
55091;DHT22;40985;53.180;5.800;2022-11-15T15:12:31;9.80;99.90
55091;DHT22;40985;53.180;5.800;2022-11-15T15:14:57;9.70;99.90
55091;DHT22;40985;53.180;5.800;2022-11-15T15:17:22;9.60;99.90
55091;DHT22;40985;53.180;5.800;2022-11-15T15:19:48;9.60;99.90
55091;DHT22;40985;53.180;5.800;2022-11-15T15:22:18;9.60;99.90
55091;DHT22;40985;53.180;5.800;2022-11-15T15:24:45;9.50;99.90
55091;DHT22;40985;53.180;5.800;2022-11-15T15:27:11;9.50;99.90
55091;DHT22;40985;53.180;5.800;2022-11-15T15:29:37;9.40;99.90
55091;DHT22;40985;53.180;5.800;2022-11-15T15:32:03;9.40;99.90
55091;DHT22;40985;53.180;5.800;2022-11-15T15:34:29;9.40;99.90
55091;DHT22;40985;53.180;5.800;2022-11-15T15:37:23;9.30;99.90
55091;DHT22;40985;53.180;5.800;2022-11-15T15:39:53;9.30;99.90
55091;DHT22;40985;53.180;5.800;2022-11-15T15:42:20;9.20;99.90
55091;DHT22;40985;53.180;5.800;2022-11-15T15:44:47;9.20;99.90
55091;DHT22;40985;53.180;5.800;2022-11-15T15:47:23;9.20;99.90
55091;DHT22;40985;53.180;5.800;2022-11-15T15:49:50;9.10;99.90
55091;DHT22;40985;53.180;5.800;2022-11-15T15:52:16;9.10;99.90
55091;DHT22;40985;53.180;5.800;2022-11-15T15:54:41;9.10;99.90
55091;DHT22;40985;53.180;5.800;2022-11-15T15:57:08;9.10;99.90
55091;DHT22;40985;53.180;5.800;2022-11-15T15:59:36;9.00;99.90
55091;DHT22;40985;53.180;5.800;2022-11-15T16:02:02;9.00;99.90
55091;DHT22;40985;53.180;5.800;2022-11-15T16:04:27;8.90;99.90
55091;DHT22;40985;53.180;5.800;2022-11-15T16:06:58;9.00;99.90
55091;DHT22;40985;53.180;5.800;2022-11-15T16:09:24;8.90;99.90
55091;DHT22;40985;53.180;5.800;2022-11-15T16:12:09;9.00;99.90
55091;DHT22;40985;53.180;5.800;2022-11-15T16:14:35;9.00;99.90
55091;DHT22;40985;53.180;5.800;2022-11-15T16:17:01;9.00;99.90
55091;DHT22;40985;53.180;5.800;2022-11-15T16:19:27;9.10;99.90
55091;DHT22;40985;53.180;5.800;2022-11-15T16:21:52;9.10;99.90
55091;DHT22;40985;53.180;5.800;2022-11-15T16:24:19;9.20;99.90
55091;DHT22;40985;53.180;5.800;2022-11-15T16:26:45;9.20;99.90
55091;DHT22;40985;53.180;5.800;2022-11-15T16:29:12;9.30;99.90
55091;DHT22;40985;53.180;5.800;2022-11-15T16:31:38;9.40;99.90
55091;DHT22;40985;53.180;5.800;2022-11-15T16:34:03;9.50;99.90
55091;DHT22;40985;53.180;5.800;2022-11-15T16:36:32;9.50;99.90
55091;DHT22;40985;53.180;5.800;2022-11-15T16:38:59;9.50;99.90
55091;DHT22;40985;53.180;5.800;2022-11-15T16:41:25;9.60;99.90
55091;DHT22;40985;53.180;5.800;2022-11-15T16:43:51;9.60;99.90
55091;DHT22;40985;53.180;5.800;2022-11-15T16:46:19;9.60;99.90
55091;DHT22;40985;53.180;5.800;2022-11-15T16:48:45;9.70;99.90
55091;DHT22;40985;53.180;5.800;2022-11-15T16:51:11;9.70;99.90
55091;DHT22;40985;53.180;5.800;2022-11-15T16:53:37;9.70;99.90
55091;DHT22;40985;53.180;5.800;2022-11-15T16:56:03;9.70;99.90
55091;DHT22;40985;53.180;5.800;2022-11-15T16:58:29;9.70;99.90
55091;DHT22;40985;53.180;5.800;2022-11-15T17:00:55;9.80;99.90
55091;DHT22;40985;53.180;5.800;2022-11-15T17:03:24;9.80;99.90
55091;DHT22;40985;53.180;5.800;2022-11-15T17:05:50;9.80;99.90
55091;DHT22;40985;53.180;5.800;2022-11-15T17:08:16;9.90;99.90
55091;DHT22;40985;53.180;5.800;2022-11-15T17:10:42;9.90;99.90
55091;DHT22;40985;53.180;5.800;2022-11-15T17:13:12;9.80;99.90
55091;DHT22;40985;53.180;5.800;2022-11-15T17:15:38;9.90;99.90
55091;DHT22;40985;53.180;5.800;2022-11-15T17:18:04;9.90;99.90
55091;DHT22;40985;53.180;5.800;2022-11-15T17:20:29;9.90;99.90
55091;DHT22;40985;53.180;5.800;2022-11-15T17:22:55;9.90;99.90
55091;DHT22;40985;53.180;5.800;2022-11-15T17:25:20;9.90;99.90
55091;DHT22;40985;53.180;5.800;2022-11-15T17:27:46;9.90;99.90
55091;DHT22;40985;53.180;5.800;2022-11-15T17:30:13;10.00;99.90
55091;DHT22;40985;53.180;5.800;2022-11-15T17:32:43;9.90;99.90
55091;DHT22;40985;53.180;5.800;2022-11-15T17:35:10;10.00;99.90
55091;DHT22;40985;53.180;5.800;2022-11-15T17:37:37;10.00;99.90
55091;DHT22;40985;53.180;5.800;2022-11-15T17:40:03;9.90;99.90
55091;DHT22;40985;53.180;5.800;2022-11-15T17:42:29;10.00;99.90
55091;DHT22;40985;53.180;5.800;2022-11-15T17:44:54;9.90;99.90
55091;DHT22;40985;53.180;5.800;2022-11-15T17:47:20;10.00;99.90
55091;DHT22;40985;53.180;5.800;2022-11-15T17:49:46;10.00;99.90
55091;DHT22;40985;53.180;5.800;2022-11-15T17:52:11;10.10;99.90
55091;DHT22;40985;53.180;5.800;2022-11-15T17:54:37;10.10;99.90
55091;DHT22;40985;53.180;5.800;2022-11-15T17:57:03;10.10;99.90
55091;DHT22;40985;53.180;5.800;2022-11-15T17:59:29;10.10;99.90
55091;DHT22;40985;53.180;5.800;2022-11-15T18:01:54;10.10;99.90
55091;DHT22;40985;53.180;5.800;2022-11-15T18:04:20;10.10;99.90